Accueil
METAR-TAF:

METAR-TAF

Aéroports :

Aéroport de Val-d'Or

Val-d'Or, Québec, Canada

latitude: 48-04N, longitude: 077-47W, altitude: 337 m

Observation

Le bulletin a été fait il y a 22 minutes, à 03:00 UTC
Vent 2 kt de nord
Température 11°C
Humidité 76%
Pression 1018 hPa
Visibilité: 14.5 km
Ciel clair

METAR: CYVO 190300Z AUTO 01002KT 9SM CLR 11/07 A3005 RMK SLP186

Heure: 23:22 (03:22 UTC)

Prévision

Le bulletin a été fait il y a 3 heures et 44 minutes, à 23:38 UTC
Prévision valable du 19 à 00 UTC au 19 à 12 UTC
Vent 3 kt de direction variable
Visibilité: 10 km
Quelques nuages à une hauteur de 27000 ft

TAF: CYVO 182338Z 1900/1912 VRB03KT P6SM FEW270 RMK NXT FCST BY 190600Z

Observations et prévisions météorologiques de plus de 4000 aéroports (messages METAR et TAF).

Les stations disponibles sont représentées par des disques jaunes et rouges sur la carte.

Passer la souris dessus pour voir le nom de la station.

Cliquer dessus pour voir les observations et prévisions météorologiques.

Pour changer de carte: cliquez sur les boutons verts avec une croix noire pour zoomer, sur le bouton vert avec un tiret pour effectuer un zoom arrière, ou sur les flèches vertes pour les cartes adjacentes.


METAR-TAF: